Date,TemperatureHighF,TemperatureAvgF,TemperatureLowF,DewpointHighF,DewpointAvgF,DewpointLowF,HumidityHigh,HumidityAvg,HumidityLow,PressureMaxIn,PressureMinIn,WindSpeedMaxMPH,WindSpeedAvgMPH,GustSpeedMaxMPH,PrecipitationSumIn
2013-3-1,50,41,32,26,23,21,68,50,35,0.00,40.00,13,4,22,0.00
2013-3-2,60,42,34,23,22,20,59,45,22,0.00,40.00,15,4,23,0.00
2013-3-3,42,35,23,30,18,-5,74,51,16,0.00,40.00,43,12,61,0.01
2013-3-4,29,23,18,8,3,-1,51,41,32,0.00,40.00,19,10,33,0.01
2013-3-5,40,30,16,10,5,1,50,36,22,0.00,40.00,14,9,24,0.00
2013-3-6,45,32,25,28,18,10,77,55,37,0.00,40.00,17,3,27,0.00
2013-3-7,48,36,29,28,16,10,80,47,23,0.00,40.00,14,7,24,0.01
2013-3-8,48,34,24,17,13,6,60,43,22,0.00,40.00,6,3,12,0.00
2013-3-9,46,34,23,15,10,6,55,39,23,0.00,40.00,14,5,23,0.00
2013-3-10,49,37,24,17,13,8,62,40,21,0.00,40.00,6,3,16,0.00
2013-3-11,45,36,25,21,15,7,55,42,24,0.00,40.00,21,11,41,0.00
2013-3-12,48,30,20,20,14,11,66,53,27,0.00,40.00,7,3,16,0.00
2013-3-13,60,50,40,22,20,17,44,32,21,0.00,40.00,17,7,25,0.00
2013-3-14,65,52,41,25,21,16,42,31,18,0.00,40.00,17,6,26,0.00
2013-3-15,58,49,42,24,18,15,37,30,22,0.00,40.00,18,8,30,0.00
2013-3-16,52,42,35,22,16,6,49,36,16,0.00,40.00,8,3,24,0.00
2013-3-17,41,32,20,30,14,-3,88,50,18,0.00,40.00,28,8,51,0.00
2013-3-18,40,27,19,22,9,-4,83,48,15,0.00,40.00,18,8,40,0.00
2013-3-19,44,32,26,22,7,-5,83,41,13,0.00,40.00,11,5,28,0.00
2013-3-20,55,46,35,28,18,-4,71,34,17,0.00,40.00,24,17,41,0.01
2013-3-21,41,34,27,28,11,-3,80,42,18,0.00,40.00,14,8,30,0.02
2013-3-22,35,25,20,10,4,0,53,41,24,0.00,40.00,17,9,29,0.00
2013-3-23,33,22,13,6,2,-5,57,41,20,0.00,40.00,14,5,21,0.00
2013-3-24,40,24,11,8,3,-3,66,42,21,0.00,40.00,10,4,12,0.00
2013-3-25,48,33,21,1,-3,-7,35,23,10,0.00,40.00,22,9,29,0.00
2013-3-26,51,41,30,11,7,-1,33,25,17,0.00,40.00,11,5,16,0.00
2013-3-27,56,40,27,19,13,9,49,35,22,0.00,40.00,7,4,20,0.00
2013-3-28,59,53,44,26,25,23,49,34,27,0.00,40.00,13,6,18,0.00
2013-3-29,55,46,37,31,27,19,66,49,25,0.00,40.00,13,4,24,0.00
2013-3-30,58,47,37,26,18,-100,54,35,20,0.00,40.00,10,5,22,0.00
2013-3-31,56,47,34,21,18,14,46,32,23,0.00,40.00,15,8,25,0.00